createdAt,value
2023-05-19T00:02:55.614Z,3.8
2023-05-19T00:08:01.778Z,3.8
2023-05-19T00:13:07.738Z,3.8
2023-05-19T00:18:13.984Z,3.7
2023-05-19T00:23:19.939Z,3.7
2023-05-19T00:28:26.032Z,3.7
2023-05-19T00:33:32.358Z,3.7
2023-05-19T00:38:38.224Z,3.7
2023-05-19T00:43:44.305Z,3.7
2023-05-19T00:48:50.572Z,3.7
2023-05-19T00:53:56.530Z,3.7
2023-05-19T00:59:02.596Z,3.8
2023-05-19T01:04:08.817Z,3.7
2023-05-19T01:09:14.837Z,3.7
2023-05-19T01:14:20.902Z,3.9
2023-05-19T01:19:27.036Z,3.9
2023-05-19T01:24:33.247Z,3.9
2023-05-19T01:29:39.155Z,3.9
2023-05-19T01:34:45.388Z,4
2023-05-19T01:39:51.345Z,3.9
2023-05-19T01:44:57.454Z,3.9
2023-05-19T01:50:03.561Z,3.9
2023-05-19T01:55:09.628Z,3.8
2023-05-19T02:00:15.731Z,3.8
2023-05-19T02:05:22.071Z,3.8
2023-05-19T02:10:28.000Z,3.8
2023-05-19T02:15:34.275Z,3.8
2023-05-19T02:20:40.166Z,3.8
2023-05-19T02:25:46.203Z,3.8
2023-05-19T02:30:52.293Z,3.9
2023-05-19T02:35:58.392Z,3.9
2023-05-19T02:41:04.508Z,3.9
2023-05-19T02:46:10.589Z,3.9
2023-05-19T02:51:16.679Z,3.8
2023-05-19T02:56:22.752Z,3.8
2023-05-19T03:01:29.057Z,3.8
2023-05-19T03:06:34.952Z,3.8
2023-05-19T03:11:41.033Z,3.8
2023-05-19T03:16:47.208Z,3.9
2023-05-19T03:21:53.366Z,3.8
2023-05-19T03:26:59.324Z,3.8
2023-05-19T03:32:05.461Z,3.9
2023-05-19T03:37:11.532Z,3.8
2023-05-19T03:42:17.605Z,3.9
2023-05-19T03:47:23.749Z,3.9
2023-05-19T03:52:29.803Z,4
2023-05-19T03:57:35.901Z,3.9
2023-05-19T04:02:42.175Z,3.9
2023-05-19T04:07:48.072Z,3.8
2023-05-19T04:12:54.191Z,3.8
2023-05-19T04:18:00.304Z,3.8
2023-05-19T04:23:06.383Z,3.9
2023-05-19T04:28:12.454Z,3.9
2023-05-19T04:33:18.577Z,4
2023-05-19T04:38:24.637Z,4.1
2023-05-19T04:43:30.746Z,4.2
2023-05-19T04:48:36.827Z,4.2
2023-05-19T04:53:42.939Z,4.3
2023-05-19T04:58:49.035Z,4.3
2023-05-19T05:03:55.329Z,4.4
2023-05-19T05:09:01.215Z,4.5
2023-05-19T05:14:07.304Z,4.6
2023-05-19T05:19:13.464Z,4.7
2023-05-19T05:24:19.505Z,4.7
2023-05-19T05:29:25.582Z,5
2023-05-19T05:34:31.684Z,5.4
2023-05-19T05:39:37.771Z,5.5
2023-05-19T05:44:43.864Z,5.8
2023-05-19T05:49:51.181Z,6.1
2023-05-19T05:54:56.282Z,6.7
2023-05-19T06:00:07.787Z,7.9
2023-05-19T06:05:13.908Z,8.2
2023-05-19T06:10:19.991Z,9.4
2023-05-19T06:15:26.219Z,9.2
2023-05-19T06:20:32.410Z,9.6
2023-05-19T06:25:38.514Z,9.8
2023-05-19T06:30:44.355Z,9.8
2023-05-19T06:35:50.700Z,9.5
2023-05-19T06:40:56.550Z,9.5
2023-05-19T06:46:02.884Z,9.7
2023-05-19T06:51:08.860Z,10.1
2023-05-19T06:56:14.896Z,10.4
2023-05-19T07:01:20.978Z,11.2
2023-05-19T07:06:27.010Z,12.5
2023-05-19T07:11:33.117Z,13
2023-05-19T07:16:39.214Z,12.4
2023-05-19T07:21:45.308Z,11.8
2023-05-19T07:26:51.403Z,11.2
2023-05-19T07:31:57.514Z,11.4
2023-05-19T07:37:03.603Z,13
2023-05-19T07:42:09.681Z,12.3
2023-05-19T07:47:15.783Z,14.3
2023-05-19T07:52:21.860Z,12.9
2023-05-19T07:57:27.980Z,9.7
2023-05-19T08:02:34.091Z,8.6
2023-05-19T08:07:40.148Z,8.1
2023-05-19T08:12:46.244Z,7.6
2023-05-19T08:17:52.377Z,8.2
2023-05-19T08:22:58.438Z,8.3
2023-05-19T08:28:04.544Z,7.8
2023-05-19T08:33:10.714Z,7.5
2023-05-19T08:38:16.840Z,8.3
2023-05-19T08:43:22.816Z,8.9
2023-05-19T08:48:28.924Z,9.7
2023-05-19T08:53:35.160Z,10.7
2023-05-19T08:58:41.230Z,13.3
2023-05-19T09:03:47.324Z,12.9
2023-05-19T09:08:53.286Z,11.2
2023-05-19T09:13:59.414Z,11.6
2023-05-19T09:19:05.515Z,11.9
2023-05-19T09:24:11.583Z,11.4
2023-05-19T09:29:17.706Z,11.3
2023-05-19T09:34:23.758Z,11
2023-05-19T09:39:29.882Z,11.8
2023-05-19T09:44:35.962Z,12.2
2023-05-19T09:49:42.067Z,11.4
2023-05-19T09:54:48.168Z,10.1
2023-05-19T09:59:54.225Z,10.5
2023-05-19T10:05:00.511Z,11.6
2023-05-19T10:10:06.446Z,10.3
2023-05-19T10:15:12.516Z,10.1
2023-05-19T10:20:18.627Z,11.2
2023-05-19T10:25:24.726Z,12.7
2023-05-19T10:30:30.811Z,12.4
2023-05-19T10:35:37.191Z,12
2023-05-19T10:40:42.998Z,11.8
2023-05-19T10:45:49.097Z,11
2023-05-19T10:50:55.240Z,11
2023-05-19T10:56:01.409Z,11.3
2023-05-19T11:01:07.387Z,11.3
2023-05-19T11:06:13.480Z,11.5
2023-05-19T11:11:19.832Z,11.2
2023-05-19T11:16:25.813Z,11.7
2023-05-19T11:21:31.826Z,11.4
2023-05-19T11:26:37.858Z,12
2023-05-19T11:31:44.164Z,11.8
2023-05-19T11:36:50.048Z,11.9
2023-05-19T11:41:56.143Z,11.2
2023-05-19T11:47:02.230Z,11.3
2023-05-19T11:52:08.352Z,10.9
2023-05-19T11:57:14.449Z,11.1
2023-05-19T12:02:20.535Z,11.1
2023-05-19T12:07:26.712Z,10.8
2023-05-19T12:12:32.995Z,11.1
2023-05-19T12:17:38.967Z,11
2023-05-19T12:22:44.894Z,11.5
2023-05-19T12:27:51.242Z,11.6
2023-05-19T12:32:57.103Z,11.1
2023-05-19T12:38:03.162Z,11.2
2023-05-19T12:43:09.266Z,11.4
2023-05-19T12:48:15.396Z,11.4
2023-05-19T12:53:21.465Z,11.9
2023-05-19T12:58:27.584Z,12.4
2023-05-19T13:03:33.719Z,12.3
2023-05-19T13:08:39.778Z,11.9
2023-05-19T13:13:45.859Z,12
2023-05-19T13:18:52.092Z,11.7
2023-05-19T13:23:58.031Z,11.5
2023-05-19T13:29:04.138Z,11.8
2023-05-19T13:34:10.236Z,11.9
2023-05-19T13:39:16.342Z,11.5
2023-05-19T13:44:22.438Z,11.6
2023-05-19T13:49:28.537Z,11.4
2023-05-19T13:54:34.597Z,12.2
2023-05-19T13:59:49.260Z,12.1
2023-05-19T14:04:46.788Z,11.3
2023-05-19T14:09:53.030Z,11.8
2023-05-19T14:14:59.937Z,11.6
2023-05-19T14:20:05.101Z,10.9
2023-05-19T14:25:11.218Z,10.7
2023-05-19T14:30:17.399Z,11.1
2023-05-19T14:35:23.391Z,11.4
2023-05-19T14:40:29.443Z,11.4
2023-05-19T14:45:35.547Z,11.2
2023-05-19T14:50:41.633Z,11.1
2023-05-19T14:55:47.894Z,11.2
2023-05-19T15:00:53.880Z,11.4
2023-05-19T15:05:59.926Z,11.4
2023-05-19T15:11:06.012Z,11.3
2023-05-19T15:21:18.345Z,11.4
2023-05-19T15:26:24.296Z,11.3
2023-05-19T15:31:30.452Z,11.4
2023-05-19T15:36:36.502Z,11.1
2023-05-19T15:41:42.602Z,11.2
2023-05-19T15:46:48.750Z,11.2
2023-05-19T15:51:54.793Z,11.3
2023-05-19T15:57:01.070Z,11
2023-05-19T16:02:06.995Z,10.9
2023-05-19T16:07:13.071Z,10.7
2023-05-19T16:12:19.946Z,10.9
2023-05-19T16:17:25.256Z,10.6
2023-05-19T16:22:31.355Z,10.4
2023-05-19T16:27:37.456Z,10.1
2023-05-19T16:32:43.600Z,9.7
2023-05-19T16:37:49.637Z,9.3
2023-05-19T16:42:55.735Z,9
2023-05-19T16:48:02.033Z,8.8
2023-05-19T16:53:07.940Z,8.7
2023-05-19T16:58:14.022Z,8.6
2023-05-19T17:03:20.349Z,8.6
2023-05-19T17:08:26.203Z,8.5
2023-05-19T17:13:32.436Z,8.4
2023-05-19T17:18:38.565Z,8.3
2023-05-19T17:23:44.484Z,8
2023-05-19T17:28:50.707Z,8.2
2023-05-19T17:33:56.678Z,8.1
2023-05-19T17:39:02.760Z,8.1
2023-05-19T17:44:08.885Z,8.1
2023-05-19T17:49:14.950Z,8
2023-05-19T17:54:21.040Z,7.9
2023-05-19T17:59:27.171Z,7.6
2023-05-19T18:04:33.233Z,7.5
2023-05-19T18:09:39.480Z,7.7
2023-05-19T18:14:45.444Z,7.4
2023-05-19T18:19:51.540Z,7.4
2023-05-19T18:24:57.780Z,7.6
2023-05-19T18:30:03.871Z,7.4
2023-05-19T18:35:09.944Z,7.2
2023-05-19T18:40:15.912Z,7.4
2023-05-19T18:45:22.031Z,7.2
2023-05-19T18:50:28.154Z,6.9
2023-05-19T18:55:35.068Z,6.9
2023-05-19T19:00:40.286Z,6.9
2023-05-19T19:05:46.373Z,6.8
2023-05-19T19:10:52.488Z,6.8
2023-05-19T19:15:58.677Z,6.8
2023-05-19T19:21:04.652Z,6.8
2023-05-19T19:26:10.744Z,6.8
2023-05-19T19:31:16.864Z,6.8
2023-05-19T19:36:23.098Z,6.8
2023-05-19T19:41:29.034Z,6.9
2023-05-19T19:46:35.304Z,6.8
2023-05-19T19:51:41.262Z,6.9
2023-05-19T19:56:47.315Z,6.9
2023-05-19T20:01:53.429Z,6.9
2023-05-19T20:06:59.512Z,6.9
2023-05-19T20:12:05.607Z,6.8
2023-05-19T20:17:11.718Z,6.4
2023-05-19T20:22:17.815Z,6.3
2023-05-19T20:27:23.873Z,6.4
2023-05-19T20:32:29.980Z,6.5
2023-05-19T20:37:36.072Z,6.5
2023-05-19T20:42:42.173Z,6.5
2023-05-19T20:47:48.277Z,6.5
2023-05-19T20:52:54.403Z,6.5
2023-05-19T20:58:00.458Z,6.5
2023-05-19T21:03:06.601Z,6.5
2023-05-19T21:08:12.826Z,6.5
2023-05-19T21:13:18.730Z,6.2
2023-05-19T21:18:24.820Z,6.4
2023-05-19T21:23:30.930Z,6.5
2023-05-19T21:28:36.996Z,6.5
2023-05-19T21:33:43.102Z,6.6
2023-05-19T21:38:49.195Z,6.6
2023-05-19T21:43:55.332Z,6.6
2023-05-19T21:49:01.390Z,6.5
2023-05-19T21:54:07.633Z,6.4
2023-05-19T21:59:13.631Z,6.4
2023-05-19T22:04:19.667Z,6.3
2023-05-19T22:09:25.765Z,6.3
2023-05-19T22:14:31.856Z,6.3
2023-05-19T22:19:38.101Z,6.2
2023-05-19T22:24:44.061Z,5.9
2023-05-19T22:29:50.165Z,6
2023-05-19T22:34:56.272Z,6.1
2023-05-19T22:40:02.362Z,6.2
2023-05-19T22:45:08.695Z,6.3
2023-05-19T22:50:14.576Z,6.1
2023-05-19T22:55:20.773Z,6
2023-05-19T23:00:32.521Z,6
2023-05-19T23:05:38.458Z,5.9
2023-05-19T23:10:44.597Z,5.6
2023-05-19T23:15:50.649Z,5.5
2023-05-19T23:20:56.716Z,5.6
2023-05-19T23:26:02.838Z,5.5
2023-05-19T23:31:08.982Z,5.3
2023-05-19T23:36:15.195Z,5.1
2023-05-19T23:41:21.255Z,5
2023-05-19T23:46:27.257Z,4.9
2023-05-19T23:51:33.298Z,4.7
2023-05-19T23:56:39.391Z,4.7
